createdAt,value
2022-08-11T00:01:59.132Z,41.70
2022-08-11T00:05:05.744Z,41.99
2022-08-11T00:08:10.879Z,41.92
2022-08-11T00:11:13.815Z,41.82
2022-08-11T00:14:19.008Z,41.83
2022-08-11T00:17:28.905Z,41.41
2022-08-11T00:20:33.246Z,40.95
2022-08-11T00:23:42.245Z,41.26
2022-08-11T00:26:49.786Z,41.21
2022-08-11T00:29:54.966Z,41.72
2022-08-11T00:32:58.838Z,41.60
2022-08-11T00:36:02.759Z,42.11
2022-08-11T00:39:08.299Z,42.00
2022-08-11T00:42:17.699Z,41.65
2022-08-11T00:45:25.854Z,42.01
2022-08-11T00:48:31.055Z,42.09
2022-08-11T00:52:03.887Z,41.89
2022-08-11T00:55:55.572Z,41.42
2022-08-11T00:59:35.076Z,41.45
2022-08-11T01:02:49.562Z,41.80
2022-08-11T01:06:01.699Z,42.43
2022-08-11T01:09:35.783Z,43.16
2022-08-11T01:12:46.961Z,43.21
2022-08-11T01:16:12.415Z,43.81
2022-08-11T01:20:38.515Z,44.49
2022-08-11T01:23:36.683Z,44.16
2022-08-11T01:27:19.040Z,44.38
2022-08-11T01:31:05.817Z,44.42
2022-08-11T01:34:56.884Z,44.80
2022-08-11T01:38:28.429Z,44.73
2022-08-11T01:42:00.929Z,45.00
2022-08-11T01:45:19.925Z,45.33
2022-08-11T01:48:33.761Z,45.55
2022-08-11T01:51:47.650Z,45.44
2022-08-11T01:54:57.746Z,45.99
2022-08-11T01:58:09.139Z,45.73
2022-08-11T02:01:21.831Z,45.52
2022-08-11T02:04:31.226Z,45.57
2022-08-11T02:07:37.222Z,46.20
2022-08-11T02:11:12.808Z,46.80
2022-08-11T02:14:25.332Z,47.18
2022-08-11T02:17:41.553Z,47.63
2022-08-11T02:21:05.955Z,47.26
2022-08-11T02:24:15.632Z,47.60
2022-08-11T02:27:23.468Z,47.58
2022-08-11T02:30:27.205Z,47.37
2022-08-11T02:33:34.466Z,47.45
2022-08-11T02:36:44.281Z,47.95
2022-08-11T02:40:12.002Z,48.85
2022-08-11T02:43:25.578Z,48.61
2022-08-11T02:46:28.644Z,48.90
2022-08-11T02:50:02.642Z,48.64
2022-08-11T02:53:15.364Z,49.09
2022-08-11T02:56:23.814Z,49.26
2022-08-11T02:59:52.367Z,50.06
2022-08-11T03:03:17.244Z,50.09
2022-08-11T03:06:31.072Z,50.34
2022-08-11T03:09:45.530Z,49.94
2022-08-11T03:13:11.319Z,50.66
2022-08-11T03:16:43.265Z,50.93
2022-08-11T03:19:50.647Z,51.11
2022-08-11T03:23:01.784Z,51.33
2022-08-11T03:26:08.695Z,50.85
2022-08-11T03:29:25.023Z,51.54
2022-08-11T03:32:32.048Z,51.33
2022-08-11T03:35:37.940Z,51.57
2022-08-11T03:38:51.463Z,51.40
2022-08-11T03:42:03.936Z,50.99
2022-08-11T03:45:19.079Z,50.99
2022-08-11T03:48:26.751Z,50.79
2022-08-11T03:51:44.589Z,51.11
2022-08-11T03:55:02.868Z,51.11
2022-08-11T03:58:38.153Z,51.16
2022-08-11T04:02:20.593Z,50.66
2022-08-11T04:06:07.369Z,51.04
2022-08-11T04:10:00.324Z,50.77
2022-08-11T04:13:40.796Z,50.89
2022-08-11T04:16:45.202Z,51.23
2022-08-11T04:20:06.950Z,51.23
2022-08-11T04:24:33.353Z,51.13
2022-08-11T04:27:37.214Z,50.97
2022-08-11T04:30:56.580Z,50.97
2022-08-11T04:34:20.580Z,51.17
2022-08-11T04:37:53.494Z,51.52
2022-08-11T04:41:21.773Z,51.47
2022-08-11T04:45:00.884Z,51.36
2022-08-11T04:48:42.745Z,51.56
2022-08-11T04:52:36.010Z,51.34
2022-08-11T04:56:18.239Z,51.00
2022-08-11T04:59:59.581Z,50.84
2022-08-11T05:03:38.067Z,51.04
2022-08-11T05:07:09.454Z,50.46
2022-08-11T05:10:21.139Z,50.60
2022-08-11T05:13:46.913Z,50.10
2022-08-11T05:17:09.863Z,50.03
2022-08-11T05:20:31.535Z,49.31
2022-08-11T05:23:53.311Z,49.82
2022-08-11T05:27:14.133Z,49.71
2022-08-11T05:30:36.138Z,49.51
2022-08-11T05:34:06.891Z,49.67
2022-08-11T05:37:26.707Z,49.51
2022-08-11T05:40:51.246Z,49.45
2022-08-11T05:44:20.330Z,49.07
2022-08-11T05:47:45.309Z,49.59
2022-08-11T05:51:11.291Z,48.72
2022-08-11T05:54:35.233Z,48.10
2022-08-11T05:57:50.750Z,48.09
2022-08-11T06:00:54.807Z,47.57
2022-08-11T06:04:15.860Z,47.56
2022-08-11T06:07:18.730Z,46.72
2022-08-11T06:10:30.092Z,46.31
2022-08-11T06:13:33.856Z,45.42
2022-08-11T06:16:36.705Z,45.37
2022-08-11T06:19:41.879Z,44.31
2022-08-11T06:22:52.375Z,42.71
2022-08-11T06:25:56.411Z,42.24
2022-08-11T06:29:01.778Z,42.02
2022-08-11T06:32:06.652Z,41.87
2022-08-11T06:35:19.423Z,41.05
2022-08-11T06:38:38.071Z,41.05
2022-08-11T06:41:46.992Z,40.73
2022-08-11T06:45:05.326Z,40.31
2022-08-11T06:48:11.197Z,40.26
2022-08-11T06:51:14.305Z,40.08
2022-08-11T06:54:17.074Z,39.93
2022-08-11T06:57:38.320Z,39.92
2022-08-11T07:00:41.848Z,39.26
2022-08-11T07:03:46.693Z,38.90
2022-08-11T07:07:25.373Z,39.14
2022-08-11T07:10:54.581Z,38.41
2022-08-11T07:14:18.638Z,38.39
2022-08-11T07:17:23.931Z,38.39
2022-08-11T07:20:44.249Z,37.78
2022-08-11T07:24:05.829Z,37.15
2022-08-11T07:27:34.983Z,37.42
2022-08-11T07:30:40.825Z,36.70
2022-08-11T07:34:07.042Z,36.55
2022-08-11T07:37:12.664Z,36.32
2022-08-11T07:40:21.928Z,35.74
2022-08-11T07:43:24.716Z,35.71
2022-08-11T07:46:45.035Z,35.81
2022-08-11T07:50:07.956Z,35.45
2022-08-11T07:53:11.428Z,35.46
2022-08-11T07:56:17.307Z,34.93
2022-08-11T08:00:04.086Z,34.41
2022-08-11T08:03:23.981Z,33.93
2022-08-11T08:06:45.273Z,33.98
2022-08-11T08:10:06.100Z,33.82
2022-08-11T08:13:27.929Z,33.08
2022-08-11T08:16:49.457Z,33.02
2022-08-11T08:19:52.265Z,32.67
2022-08-11T08:22:57.495Z,32.41
2022-08-11T08:26:01.508Z,32.40
2022-08-11T08:29:25.106Z,31.48
2022-08-11T08:32:28.689Z,31.43
2022-08-11T08:35:32.996Z,30.84
2022-08-11T08:38:35.925Z,30.35
2022-08-11T08:41:39.660Z,29.97
2022-08-11T08:44:46.635Z,29.89
2022-08-11T08:47:53.832Z,29.70
2022-08-11T08:51:17.694Z,30.15
2022-08-11T08:54:28.563Z,29.97
2022-08-11T08:57:39.228Z,30.02
2022-08-11T09:00:46.154Z,29.79
2022-08-11T09:04:05.182Z,28.96
2022-08-11T09:07:13.390Z,28.19
2022-08-11T09:10:17.527Z,28.09
2022-08-11T09:13:20.530Z,27.84
2022-08-11T09:16:25.367Z,27.50
2022-08-11T09:19:28.026Z,27.50
2022-08-11T09:23:19.269Z,26.99
2022-08-11T09:26:32.374Z,26.86
2022-08-11T09:29:35.229Z,26.76
2022-08-11T09:32:40.409Z,26.67
2022-08-11T09:35:46.668Z,26.92
2022-08-11T09:39:07.246Z,26.16
2022-08-11T09:42:11.241Z,26.15
2022-08-11T09:45:14.106Z,26.26
2022-08-11T09:48:18.808Z,26.06
2022-08-11T09:51:22.787Z,26.02
2022-08-11T09:54:26.538Z,25.80
2022-08-11T09:57:47.859Z,25.26
2022-08-11T10:00:52.087Z,25.18
2022-08-11T10:04:01.746Z,25.12
2022-08-11T10:07:08.945Z,25.04
2022-08-11T10:10:12.084Z,24.39
2022-08-11T10:14:32.252Z,24.72
2022-08-11T10:16:41.178Z,24.13
2022-08-11T10:20:03.820Z,24.19
2022-08-11T10:23:27.157Z,24.61
2022-08-11T10:26:48.657Z,24.40
2022-08-11T10:30:09.839Z,23.68
2022-08-11T10:33:36.946Z,23.72
2022-08-11T10:36:47.188Z,23.82
2022-08-11T10:39:52.893Z,23.60
2022-08-11T10:43:06.822Z,23.16
2022-08-11T10:46:30.177Z,23.08
2022-08-11T10:49:33.840Z,22.68
2022-08-11T10:52:56.841Z,22.41
2022-08-11T10:56:16.694Z,23.04
2022-08-11T10:59:19.706Z,22.90
2022-08-11T11:02:22.777Z,22.77
2022-08-11T11:05:30.583Z,23.08
2022-08-11T11:08:57.630Z,22.52
2022-08-11T11:12:25.799Z,22.74
2022-08-11T11:15:49.745Z,22.79
2022-08-11T11:19:00.569Z,21.59
2022-08-11T11:22:23.617Z,21.45
2022-08-11T11:25:34.196Z,22.28
2022-08-11T11:28:52.663Z,22.02
2022-08-11T11:32:07.213Z,21.35
2022-08-11T11:35:26.704Z,20.76
2022-08-11T11:38:29.906Z,21.04
2022-08-11T11:41:34.131Z,20.72
2022-08-11T11:44:38.510Z,20.87
2022-08-11T11:47:42.140Z,20.57
2022-08-11T11:50:44.920Z,20.76
2022-08-11T11:53:48.306Z,20.62
2022-08-11T11:56:53.308Z,20.19
2022-08-11T12:00:14.368Z,19.84
2022-08-11T12:03:17.995Z,19.74
2022-08-11T12:06:22.492Z,19.18
2022-08-11T12:09:25.755Z,19.48
2022-08-11T12:12:47.646Z,20.06
2022-08-11T12:16:31.803Z,20.33
2022-08-11T12:19:15.128Z,19.90
2022-08-11T12:22:35.505Z,19.54
2022-08-11T12:26:23.302Z,19.31
2022-08-11T12:29:21.548Z,18.83
2022-08-11T12:32:26.127Z,19.06
2022-08-11T12:35:28.884Z,18.79
2022-08-11T12:38:32.309Z,19.12
2022-08-11T12:41:53.843Z,18.38
2022-08-11T12:45:22.335Z,18.59
2022-08-11T12:49:00.392Z,17.95
2022-08-11T12:52:14.819Z,17.87
2022-08-11T12:55:42.773Z,17.05
2022-08-11T12:59:23.936Z,11.39
2022-08-11T13:02:49.780Z,8.82
2022-08-11T13:05:55.045Z,7.47
2022-08-11T13:09:01.484Z,6.53
2022-08-11T13:12:22.319Z,6.99
2022-08-11T13:15:26.215Z,6.49
2022-08-11T13:18:31.205Z,6.36
2022-08-11T13:21:34.022Z,5.82
2022-08-11T13:24:37.209Z,5.48
2022-08-11T13:27:40.048Z,4.78
2022-08-11T13:31:01.845Z,4.36
2022-08-11T13:34:08.962Z,4.88
2022-08-11T13:37:14.356Z,4.69
2022-08-11T13:40:27.775Z,3.76
2022-08-11T13:43:35.998Z,4.34
2022-08-11T13:46:38.962Z,4.70
2022-08-11T13:49:45.182Z,4.24
2022-08-11T13:52:53.120Z,4.36
2022-08-11T13:55:56.846Z,4.63
2022-08-11T13:59:00.833Z,3.75
2022-08-11T14:02:21.965Z,3.30
2022-08-11T14:05:34.256Z,3.41
2022-08-11T14:08:41.786Z,4.00
2022-08-11T14:12:21.845Z,4.67
2022-08-11T14:15:30.023Z,4.18
2022-08-11T14:18:34.052Z,3.63
2022-08-11T14:22:03.693Z,4.25
2022-08-11T14:25:10.568Z,5.52
2022-08-11T14:28:34.080Z,4.81
2022-08-11T14:31:39.284Z,3.75
2022-08-11T14:34:44.739Z,3.56
2022-08-11T14:37:49.250Z,3.75
2022-08-11T14:41:10.537Z,4.30
2022-08-11T14:44:31.027Z,4.96
2022-08-11T14:47:35.284Z,4.88
2022-08-11T14:50:38.191Z,4.77
2022-08-11T14:53:58.205Z,3.85
2022-08-11T14:57:03.354Z,3.52
2022-08-11T15:00:08.014Z,2.82
2022-08-11T15:03:13.182Z,3.77
2022-08-11T15:06:16.303Z,4.44
2022-08-11T15:09:20.440Z,4.25
2022-08-11T15:12:31.154Z,4.47
2022-08-11T15:15:55.631Z,3.71
2022-08-11T15:18:59.071Z,4.17
2022-08-11T15:22:22.860Z,4.34
2022-08-11T15:25:30.765Z,4.24
2022-08-11T15:28:55.685Z,4.05
2022-08-11T15:32:16.024Z,3.72
2022-08-11T15:35:39.258Z,2.55
2022-08-11T15:38:45.962Z,3.35
2022-08-11T15:42:12.734Z,2.87
2022-08-11T15:45:34.409Z,3.39
2022-08-11T15:48:42.601Z,3.97
2022-08-11T15:51:48.372Z,3.71
2022-08-11T15:54:51.348Z,4.16
2022-08-11T15:58:14.210Z,3.50
2022-08-11T16:01:34.881Z,2.99
2022-08-11T16:04:38.592Z,3.79
2022-08-11T16:07:42.841Z,3.04
2022-08-11T16:10:47.734Z,4.08
2022-08-11T16:14:13.160Z,4.45
2022-08-11T16:17:17.097Z,4.77
2022-08-11T16:20:25.173Z,4.37
2022-08-11T16:23:29.189Z,4.89
2022-08-11T16:27:10.438Z,5.24
2022-08-11T16:29:57.384Z,6.57
2022-08-11T16:33:48.331Z,5.90
2022-08-11T16:36:45.179Z,4.68
2022-08-11T16:39:51.147Z,5.23
2022-08-11T16:43:12.266Z,5.39
2022-08-11T16:46:36.597Z,4.94
2022-08-11T16:49:42.983Z,6.27
2022-08-11T16:52:52.300Z,7.77
2022-08-11T16:55:56.133Z,6.45
2022-08-11T16:59:17.586Z,6.69
2022-08-11T17:02:37.048Z,7.09
2022-08-11T17:06:01.313Z,7.00
2022-08-11T17:09:22.244Z,10.04
2022-08-11T17:12:44.750Z,11.76
2022-08-11T17:16:10.128Z,13.31
2022-08-11T17:19:15.590Z,14.41
2022-08-11T17:22:37.340Z,15.21
2022-08-11T17:25:59.447Z,16.15
2022-08-11T17:29:04.336Z,16.19
2022-08-11T17:32:26.624Z,17.05
2022-08-11T17:35:38.653Z,17.13
2022-08-11T17:38:42.835Z,17.38
2022-08-11T17:42:09.162Z,17.68
2022-08-11T17:45:30.348Z,17.85
2022-08-11T17:48:38.038Z,17.86
2022-08-11T17:52:10.525Z,18.15
2022-08-11T17:55:52.451Z,18.65
2022-08-11T17:59:13.207Z,19.08
2022-08-11T18:02:34.738Z,19.06
2022-08-11T18:05:39.232Z,19.56
2022-08-11T18:09:02.918Z,20.30
2022-08-11T18:12:25.482Z,20.75
2022-08-11T18:15:49.920Z,20.99
2022-08-11T18:19:11.539Z,21.23
2022-08-11T18:22:34.766Z,21.22
2022-08-11T18:25:59.559Z,22.03
2022-08-11T18:29:19.757Z,22.60
2022-08-11T18:32:49.559Z,23.28
2022-08-11T18:36:12.955Z,23.77
2022-08-11T18:39:34.144Z,24.37
2022-08-11T18:42:56.831Z,24.94
2022-08-11T18:46:20.460Z,25.58
2022-08-11T18:50:03.973Z,25.84
2022-08-11T18:53:26.305Z,26.22
2022-08-11T18:56:48.864Z,26.20
2022-08-11T19:00:12.482Z,26.53
2022-08-11T19:03:43.347Z,25.96
2022-08-11T19:07:15.461Z,26.57
2022-08-11T19:10:38.562Z,26.78
2022-08-11T19:14:00.118Z,27.34
2022-08-11T19:17:44.312Z,27.83
2022-08-11T19:21:04.344Z,28.04
2022-08-11T19:24:26.014Z,27.78
2022-08-11T19:27:47.352Z,28.09
2022-08-11T19:31:07.447Z,27.95
2022-08-11T19:34:30.121Z,28.04
2022-08-11T19:37:51.047Z,28.32
2022-08-11T19:41:11.859Z,28.50
2022-08-11T19:44:33.603Z,28.24
2022-08-11T19:48:08.141Z,28.58
2022-08-11T19:51:36.529Z,29.10
2022-08-11T19:54:57.755Z,29.21
2022-08-11T19:58:18.311Z,30.01
2022-08-11T20:01:38.670Z,30.39
2022-08-11T20:05:19.318Z,31.00
2022-08-11T20:08:42.832Z,31.26
2022-08-11T20:12:05.867Z,31.34
2022-08-11T20:15:27.642Z,31.70
2022-08-11T20:18:48.706Z,31.45
2022-08-11T20:22:09.824Z,31.77
2022-08-11T20:25:33.450Z,31.86
2022-08-11T20:28:54.370Z,32.04
2022-08-11T20:32:14.604Z,32.51
2022-08-11T20:35:35.604Z,32.11
2022-08-11T20:38:57.179Z,32.24
2022-08-11T20:42:20.205Z,32.32
2022-08-11T20:45:55.274Z,33.06
2022-08-11T20:49:18.128Z,32.53
2022-08-11T20:52:40.280Z,32.35
2022-08-11T20:56:00.887Z,33.38
2022-08-11T21:03:11.217Z,33.46
2022-08-11T21:06:33.484Z,33.26
2022-08-11T21:09:58.313Z,33.18
2022-08-11T21:13:27.065Z,33.81
2022-08-11T21:16:53.541Z,33.50
2022-08-11T21:20:20.717Z,34.16
2022-08-11T21:23:42.286Z,34.34
2022-08-11T21:27:04.407Z,34.29
2022-08-11T21:30:26.893Z,34.49
2022-08-11T21:33:50.577Z,34.07
2022-08-11T21:37:10.942Z,33.17
2022-08-11T21:40:33.287Z,33.66
2022-08-11T21:43:54.114Z,33.91
2022-08-11T21:47:18.443Z,34.27
2022-08-11T21:50:42.697Z,34.58
2022-08-11T21:54:03.512Z,34.90
2022-08-11T21:57:25.205Z,34.08
2022-08-11T22:00:45.535Z,34.51
2022-08-11T22:04:06.230Z,33.57
2022-08-11T22:07:28.458Z,33.77
2022-08-11T22:10:50.933Z,33.70
2022-08-11T22:14:11.271Z,33.75
2022-08-11T22:17:31.781Z,33.61
2022-08-11T22:20:52.383Z,32.85
2022-08-11T22:24:14.766Z,32.92
2022-08-11T22:27:38.659Z,32.56
2022-08-11T22:30:59.062Z,33.36
2022-08-11T22:34:20.643Z,32.92
2022-08-11T22:37:40.973Z,33.21
2022-08-11T22:41:02.939Z,33.18
2022-08-11T22:44:23.303Z,33.60
2022-08-11T22:47:45.149Z,33.12
2022-08-11T22:51:05.524Z,32.96
2022-08-11T22:54:27.358Z,32.69
2022-08-11T22:58:00.144Z,32.77
2022-08-11T23:01:21.894Z,33.57
2022-08-11T23:04:42.515Z,33.94
2022-08-11T23:08:03.965Z,34.48
2022-08-11T23:11:24.811Z,34.16
2022-08-11T23:14:46.529Z,34.74
2022-08-11T23:18:06.890Z,35.44
2022-08-11T23:21:27.309Z,36.07
2022-08-11T23:24:47.710Z,36.27
2022-08-11T23:28:08.207Z,37.01
2022-08-11T23:31:30.119Z,37.13
2022-08-11T23:35:38.591Z,37.45
2022-08-11T23:38:54.120Z,37.99
2022-08-11T23:42:14.527Z,38.65
2022-08-11T23:45:35.505Z,38.76
2022-08-11T23:48:57.762Z,38.77
2022-08-11T23:52:18.656Z,39.14
2022-08-11T23:55:39.374Z,39.29
2022-08-11T23:58:59.646Z,39.74
